Etusivu
METAR-TAF:

METAR-TAF

Lentoasemat :

Port Moresby, Papua-Uusi-Guinea

Jacksonsin kansainvälinen lentoasema

Leveyspiiri: 09-26S, Pituuspiiri: 147-13E, korkeus merenpinnasta: 38 m

Tämänhetkinen sää

Tämä raportti tehtiin 37 minuuttia sitten, kello 01.00 UTC
Tuuli 10 kn etelästä/kaakosta
Lämpötila 30°C
Kosteus 62%
Ilmanpaine 1010 hPa
Näkyvyys 10 km tai enemmän
Hajanaisia pilviä 1800 ft:n korkeudessa

METAR: AYPY 230100Z 16010KT 9999 SCT018 30/22 Q1010

Aika: 11:37 (01:37 UTC)

Sääennuste

Tämä raportti tehtiin 3 tuntia ja 36 minuuttia sitten, kello 22.01 UTC
Ennuste voimassa 23. päivästä klo 00 UTC - 23. päivään klo 24 UTC
Tuuli 15 kn etelästä/kaakosta
Näkyvyys 10 km tai enemmän
Hajanaisia pilviä 1800 ft:n korkeudessa
From 23. päivästä klo 0900 UTC
Tuuli 15 kn etelästä/kaakosta
Näkyvyys 10 km tai enemmän
Hajanaisia pilviä 3500 ft:n korkeudessa

TAF: AYPY 222201Z 2300/2324 16015KT 9999 SCT018 FM230900 16015KT 9999 SCT035

Säähavainnot ja -ennusteet yli 4000 lentoasemalta (METAR- ja TAF-raportit).

Käytössä olevat sääasemat on merkitty karttaan keltaisilla ja punaisilla pisteillä.

Aseta hiiri pisteen päälle nähdäksesi sääaseman nimen.

Klikkaa sitten nähdäksesi säähavainnot ja -ennusteet.

Kartan vaihtaminen: klikkaa mustalla rastilla varustettuja vihreitä pisteitä, niin voit zoomata sisään; viivalla varustettua vihreää pistettä, niin voit zoomata ulos tai vihreitä nuolia, niin pääset viereisille kartoille.


METAR-TAF: